Time;durP1;ratioP1;P1;durP2;ratioP2;P2;SDS_P1;SDS_P2;PMS_P1;PMS_P2;Temp;Humidity;BMP_temperature;BMP_pressure;BME280_temperature;BME280_humidity;BME280_pressure;Samples;Min_cycle;Max_cycle;Signal;HPM_P1;HPM_P2
2024/03/07 00:04:41;;;;;;;28.88;16.50;;;;;;;3.37;100.00;149514.75;10668722;27;20084;-73
2024/03/07 00:09:43;;;;;;;25.13;17.20;;;;;;;3.29;100.00;149496.75;10668565;27;20038;-73
2024/03/07 00:14:44;;;;;;;25.38;17.70;;;;;;;3.38;100.00;149518.56;10668390;27;20034;-73
2024/03/07 00:19:47;;;;;;;29.45;17.90;;;;;;;3.28;100.00;149494.19;10649226;27;20046;-73
2024/03/07 00:24:49;;;;;;;30.77;17.23;;;;;;;3.19;100.00;149471.09;10649854;27;20081;-73
2024/03/07 00:29:54;;;;;;;36.40;19.05;;;;;;;3.19;100.00;149469.81;10668259;27;20043;-73
2024/03/07 00:34:59;;;;;;;32.53;18.98;;;;;;;3.45;100.00;149536.56;10649641;27;20077;-73
2024/03/07 00:40:01;;;;;;;34.55;18.50;;;;;;;3.44;100.00;149533.97;10669848;27;20030;-74
2024/03/07 00:45:03;;;;;;;33.90;18.52;;;;;;;3.72;100.00;149603.34;10667783;27;20042;-74
2024/03/07 00:50:09;;;;;;;35.00;18.95;;;;;;;3.86;100.00;149638.00;10667870;27;20038;-75
2024/03/07 00:55:11;;;;;;;25.92;17.60;;;;;;;3.65;100.00;149586.63;10674127;27;20034;-73
2024/03/07 01:00:13;;;;;;;35.10;17.85;;;;;;;3.72;100.00;149603.34;10675916;27;20103;-73
2024/03/07 01:05:17;;;;;;;31.63;18.02;;;;;;;3.82;100.00;149627.72;10675733;27;20095;-73
2024/03/07 01:10:19;;;;;;;31.15;18.73;;;;;;;3.82;100.00;149629.00;10675041;27;20074;-73
2024/03/07 01:15:21;;;;;;;44.58;19.67;;;;;;;3.60;100.00;149572.50;10675284;27;20050;-74
2024/03/07 01:20:25;;;;;;;30.50;17.90;;;;;;;3.56;100.00;149563.50;10675390;27;20043;-74
2024/03/07 01:25:27;;;;;;;33.38;18.23;;;;;;;3.54;100.00;149558.34;10674468;27;20143;-73
2024/03/07 01:30:28;;;;;;;33.40;18.83;;;;;;;3.76;100.00;149613.56;10656094;27;20467;-74
2024/03/07 01:35:30;;;;;;;35.00;18.75;;;;;;;3.63;100.00;149581.50;10674118;27;20105;-74
2024/03/07 01:40:32;;;;;;;27.13;17.30;;;;;;;3.64;100.00;149584.06;10674586;27;20070;-74
2024/03/07 01:45:37;;;;;;;26.08;17.38;;;;;;;3.65;100.00;149586.63;10673969;27;20038;-74
2024/03/07 01:50:39;;;;;;;30.98;18.45;;;;;;;3.59;100.00;149571.22;10673763;27;20047;-74
2024/03/07 01:55:40;;;;;;;28.38;18.38;;;;;;;3.67;100.00;149591.72;10673899;27;20083;-74
2024/03/07 02:00:43;;;;;;;38.25;19.35;;;;;;;3.82;100.00;149629.00;10673180;27;20114;-74
2024/03/07 02:05:45;;;;;;;31.58;18.00;;;;;;;3.85;100.00;149636.72;10672418;27;20558;-74
2024/03/07 02:10:48;;;;;;;42.92;18.88;;;;;;;3.83;100.00;149630.28;10673016;27;20090;-74
2024/03/07 02:15:50;;;;;;;39.22;19.10;;;;;;;4.13;100.00;149706.06;10672572;27;20462;-74
2024/03/07 02:20:52;;;;;;;40.05;20.13;;;;;;;4.10;100.00;149698.34;10672582;27;20038;-74
2024/03/07 02:25:54;;;;;;;33.70;19.02;;;;;;;3.99;100.00;149671.41;10672311;27;20039;-74
2024/03/07 02:30:57;;;;;;;33.63;18.60;;;;;;;3.88;100.00;149644.41;10672688;27;20039;-74
2024/03/07 02:35:58;;;;;;;36.80;19.48;;;;;;;4.10;100.00;149698.34;10653978;27;20060;-73
2024/03/07 02:41:00;;;;;;;38.13;20.35;;;;;;;4.09;100.00;149695.78;10672204;27;20078;-73
2024/03/07 02:46:02;;;;;;;36.63;19.50;;;;;;;3.94;100.00;149658.50;10671963;27;20035;-73
2024/03/07 02:51:05;;;;;;;37.90;20.25;;;;;;;3.94;100.00;149658.50;10672559;27;20559;-73
2024/03/07 02:56:07;;;;;;;28.67;18.52;;;;;;;3.98;100.00;149670.06;10672466;27;20111;-73
2024/03/07 03:01:10;;;;;;;34.67;19.50;;;;;;;3.87;100.00;149641.84;10671407;27;20073;-73
2024/03/07 03:06:12;;;;;;;38.97;20.27;;;;;;;3.88;100.00;149644.41;10671126;27;20113;-73
2024/03/07 03:11:14;;;;;;;32.33;19.33;;;;;;;3.88;100.00;149644.41;10670657;27;20034;-74
2024/03/07 03:16:16;;;;;;;41.38;20.10;;;;;;;3.93;100.00;149657.22;10671051;27;20084;-73
2024/03/07 03:21:21;;;;;;;36.33;20.73;;;;;;;3.94;100.00;149658.50;10651807;27;20042;-73
2024/03/07 03:26:23;;;;;;;39.65;19.98;;;;;;;4.22;100.00;149730.47;10670513;27;20138;-74
2024/03/07 03:31:25;;;;;;;36.97;18.77;;;;;;;4.34;100.00;149758.72;10671271;27;20051;-74
2024/03/07 03:36:27;;;;;;;40.90;20.13;;;;;;;4.36;100.00;149765.16;10670903;27;20091;-74
2024/03/07 03:41:30;;;;;;;50.10;21.73;;;;;;;4.38;100.00;149769.00;10670411;27;20062;-73
2024/03/07 03:46:32;;;;;;;37.55;19.65;;;;;;;4.14;100.00;149709.91;10669496;27;20126;-73
2024/03/07 03:51:33;;;;;;;45.30;21.02;;;;;;;4.07;100.00;149690.63;10669480;27;20103;-73
2024/03/07 03:56:35;;;;;;;39.33;20.73;;;;;;;4.20;100.00;149725.31;10668848;27;20081;-73
2024/03/07 04:01:38;;;;;;;32.40;19.35;;;;;;;4.28;100.00;149744.59;10669149;27;20050;-74
2024/03/07 04:06:40;;;;;;;36.92;20.30;;;;;;;4.29;100.00;149748.47;10669372;27;20045;-75
2024/03/07 04:11:45;;;;;;;43.50;22.23;;;;;;;4.48;100.00;149794.72;10650154;27;20046;-73
2024/03/07 04:16:47;;;;;;;38.10;21.77;;;;;;;4.48;100.00;149796.00;10650120;27;20038;-73
2024/03/07 04:21:49;;;;;;;46.80;22.13;;;;;;;4.29;100.00;149747.16;10667899;27;20070;-73
2024/03/07 04:26:53;;;;;;;43.03;21.98;;;;;;;4.28;100.00;149744.59;10667250;27;20050;-75
2024/03/07 04:31:55;;;;;;;38.22;21.85;;;;;;;4.36;100.00;149765.16;10667567;27;20043;-74
2024/03/07 04:36:58;;;;;;;34.95;20.83;;;;;;;4.08;100.00;149693.25;10667961;27;20058;-73
2024/03/07 04:42:01;;;;;;;38.20;21.15;;;;;;;4.27;100.00;149742.03;10668114;27;20453;-73
2024/03/07 04:47:04;;;;;;;37.10;21.95;;;;;;;4.03;100.00;149682.97;10648747;27;20390;-73
2024/03/07 04:52:06;;;;;;;42.72;21.83;;;;;;;4.16;100.00;149713.75;10667967;27;20035;-75
2024/03/07 04:57:07;;;;;;;39.67;23.92;;;;;;;3.92;100.00;149654.69;10667739;27;20108;-73
2024/03/07 05:02:09;;;;;;;37.97;22.42;;;;;;;3.80;100.00;149623.84;10667934;27;20118;-74
2024/03/07 05:07:11;;;;;;;40.33;23.30;;;;;;;3.71;100.00;149600.72;10667618;27;20043;-73
2024/03/07 05:12:13;;;;;;;38.38;22.27;;;;;;;3.85;100.00;149636.72;10667985;27;20079;-73
2024/03/07 05:17:15;;;;;;;48.17;22.02;;;;;;;3.79;100.00;149621.28;10667672;27;20041;-74
2024/03/07 05:22:18;;;;;;;37.55;21.83;;;;;;;3.76;100.00;149613.56;10666888;27;20039;-73
2024/03/07 05:27:21;;;;;;;39.10;22.65;;;;;;;3.80;100.00;149623.84;10668365;27;20483;-74
2024/03/07 05:32:26;;;;;;;45.00;22.63;;;;;;;3.67;100.00;149591.72;10649946;27;20050;-74
2024/03/07 05:37:29;;;;;;;47.00;24.57;;;;;;;3.52;100.00;149554.50;10668573;27;20039;-73
2024/03/07 05:42:31;;;;;;;32.08;21.45;;;;;;;3.29;100.00;149495.47;10673777;27;20328;-75
2024/03/07 05:47:34;;;;;;;33.78;20.42;;;;;;;3.29;100.00;149496.75;10674428;27;20121;-73
2024/03/07 05:52:36;;;;;;;31.63;22.52;;;;;;;3.23;100.00;149480.03;10674641;27;20042;-74
2024/03/07 05:57:39;;;;;;;32.97;19.88;;;;;;;3.20;100.00;149473.66;10674202;27;20095;-74
2024/03/07 06:02:44;;;;;;;45.65;26.38;;;;;;;3.14;100.00;149458.22;10673975;27;20459;-74
2024/03/07 06:07:46;;;;;;;43.40;22.13;;;;;;;3.06;100.00;149436.44;10673233;27;20043;-74
2024/03/07 06:12:48;;;;;;;25.55;19.95;;;;;;;3.00;100.00;149423.56;10654746;27;20051;-74
2024/03/07 06:18:10;;;;;;;33.53;21.13;;;;;;;2.84;100.00;149382.53;10673966;27;20085;-74
2024/03/07 06:23:15;;;;;;;34.10;21.02;;;;;;;2.78;100.00;149367.09;10674530;27;20091;-74
2024/03/07 06:28:18;;;;;;;27.52;20.00;;;;;;;2.67;100.00;149338.91;10674545;27;20475;-74
2024/03/07 06:33:20;;;;;;;31.33;19.70;;;;;;;2.67;100.00;149340.16;10673742;27;20077;-73
2024/03/07 06:38:27;;;;;;;42.50;21.65;;;;;;;2.73;100.00;149354.28;10673057;27;20113;-74
2024/03/07 06:43:29;;;;;;;43.35;20.42;;;;;;;2.65;100.00;149335.00;10672724;27;20038;-73
2024/03/07 06:48:31;;;;;;;28.45;20.05;;;;;;;2.72;100.00;149353.00;10672334;27;20495;-73
2024/03/07 06:53:33;;;;;;;26.90;19.85;;;;;;;2.82;100.00;149377.38;10672008;27;20042;-74
2024/03/07 06:58:35;;;;;;;30.00;19.80;;;;;;;2.80;100.00;149372.25;10653628;27;20043;-73
2024/03/07 07:03:37;;;;;;;22.88;18.23;;;;;;;2.98;100.00;149418.44;10671563;27;20043;-73
2024/03/07 07:08:39;;;;;;;24.83;17.92;;;;;;;3.09;100.00;149445.38;10671699;27;20494;-73
2024/03/07 07:13:42;;;;;;;28.17;18.40;;;;;;;3.16;100.00;149463.38;10671178;27;20110;-73
2024/03/07 07:18:44;;;;;;;29.45;17.90;;;;;;;3.43;100.00;149530.13;10652299;27;20045;-73
2024/03/07 07:23:45;;;;;;;25.88;18.85;;;;;;;3.73;100.00;149607.16;10670444;27;20043;-75
2024/03/07 07:28:47;;;;;;;25.95;17.70;;;;;;;3.64;98.06;149582.78;10670468;27;20478;-75
2024/03/07 07:33:50;;;;;;;23.73;18.00;;;;;;;3.59;96.98;149569.94;10652284;27;20035;-75
2024/03/07 07:38:52;;;;;;;21.65;17.50;;;;;;;3.54;95.27;149558.34;10610410;27;20066;-74
2024/03/07 07:43:57;;;;;;;19.95;14.45;;;;;;;3.51;91.10;149551.94;10648767;27;20074;-73
2024/03/07 07:49:02;;;;;;;19.97;14.67;;;;;;;3.30;89.47;149498.03;10643103;27;20522;-74
2024/03/07 07:54:06;;;;;;;14.60;11.00;;;;;;;3.42;87.74;149527.56;10669986;27;20709;-75
2024/03/07 07:59:09;;;;;;;11.18;10.05;;;;;;;3.27;85.46;149490.31;10651953;27;20046;-75
2024/03/07 08:04:11;;;;;;;13.82;11.00;;;;;;;3.51;83.97;149551.94;10668315;27;20074;-73
2024/03/07 08:09:16;;;;;;;21.15;12.27;;;;;;;3.68;83.50;149594.34;10626694;27;20035;-73
2024/03/07 08:14:18;;;;;;;13.35;10.60;;;;;;;3.79;82.04;149622.56;10625903;27;20042;-73
2024/03/07 08:19:20;;;;;;;14.63;10.02;;;;;;;3.90;80.73;149649.56;10626091;27;20088;-73
2024/03/07 08:24:22;;;;;;;13.90;10.73;;;;;;;3.87;79.27;149641.84;10625847;27;20042;-73
2024/03/07 08:29:25;;;;;;;11.82;10.65;;;;;;;3.91;75.88;149652.13;10609637;27;20127;-74
2024/03/07 08:34:26;;;;;;;13.38;9.55;;;;;;;4.28;73.06;149745.88;10628053;27;20070;-73
2024/03/07 08:39:28;;;;;;;12.68;10.43;;;;;;;4.48;75.78;149794.72;10638057;27;20037;-73
2024/03/07 08:44:30;;;;;;;10.50;9.40;;;;;;;4.77;72.57;149869.22;10668780;27;20046;-73
2024/03/07 08:49:32;;;;;;;11.68;9.27;;;;;;;4.97;73.29;149918.13;10667824;27;20042;-74
2024/03/07 08:54:33;;;;;;;7.90;7.10;;;;;;;4.79;66.73;149873.13;10668247;27;20054;-74
2024/03/07 08:59:36;;;;;;;8.95;6.93;;;;;;;4.85;65.79;149888.53;10667695;27;20080;-74
2024/03/07 09:04:38;;;;;;;8.77;7.20;;;;;;;4.91;68.18;149903.94;10649304;27;20525;-74
2024/03/07 09:09:45;;;;;;;8.65;7.68;;;;;;;5.02;67.58;149930.97;10668080;27;20038;-74
2024/03/07 09:14:47;;;;;;;8.95;7.85;;;;;;;5.06;65.78;149941.25;10672685;27;20113;-75
2024/03/07 09:19:52;;;;;;;8.15;7.30;;;;;;;4.97;67.00;149919.38;10676531;27;20039;-72
2024/03/07 09:24:54;;;;;;;8.82;7.10;;;;;;;4.76;66.99;149865.41;10675786;27;20042;-73
2024/03/07 09:29:55;;;;;;;6.60;5.47;;;;;;;5.06;60.96;149941.25;10675359;27;20077;-74
2024/03/07 09:34:57;;;;;;;7.22;6.32;;;;;;;4.90;60.22;149901.38;10674934;27;20041;-73
2024/03/07 09:39:59;;;;;;;7.60;5.57;;;;;;;4.91;60.25;149902.66;10661092;27;20067;-73
2024/03/07 09:45:03;;;;;;;8.20;6.95;;;;;;;4.98;61.50;149921.94;10631749;27;20113;-73
2024/03/07 09:50:08;;;;;;;7.55;6.00;;;;;;;4.95;61.72;149912.94;10631464;27;20500;-73
2024/03/07 09:55:10;;;;;;;7.13;5.88;;;;;;;5.19;61.84;149974.66;10631262;27;20103;-73
2024/03/07 10:00:22;;;;;;;8.65;6.65;;;;;;;4.99;61.51;149924.50;10622678;27;20051;-74
2024/03/07 10:05:27;;;;;;;9.50;7.20;;;;;;;4.92;62.04;149905.25;10657418;27;20038;-74
2024/03/07 10:10:30;;;;;;;9.25;8.25;;;;;;;4.95;62.99;149914.22;10667376;27;20406;-74
2024/03/07 10:15:34;;;;;;;9.07;8.18;;;;;;;4.89;63.98;149897.53;10673544;27;20035;-73
2024/03/07 10:20:37;;;;;;;9.13;8.20;;;;;;;4.83;63.50;149882.13;10666320;27;20050;-75
2024/03/07 10:25:40;;;;;;;9.88;8.57;;;;;;;5.08;64.46;149946.38;10672936;27;20522;-74
2024/03/07 10:30:46;;;;;;;9.90;8.40;;;;;;;4.94;63.22;149911.66;10673403;27;20046;-74
2024/03/07 10:35:50;;;;;;;8.90;8.10;;;;;;;5.01;63.59;149928.41;10659797;27;20475;-73
2024/03/07 10:40:54;;;;;;;16.08;9.40;;;;;;;5.19;63.60;149973.41;10629996;27;20051;-73
2024/03/07 10:45:57;;;;;;;10.13;9.00;;;;;;;5.01;64.19;149929.69;10629246;27;20063;-75
2024/03/07 10:51:09;;;;;;;11.25;9.45;;;;;;;5.02;64.86;149932.25;10609937;27;20047;-73
2024/03/07 10:56:21;;;;;;;11.52;8.98;;;;;;;5.13;66.23;149959.22;10624920;27;20070;-73
2024/03/07 11:01:25;;;;;;;10.98;9.88;;;;;;;4.96;67.28;149915.53;10629727;27;20047;-74
2024/03/07 11:06:27;;;;;;;10.85;9.38;;;;;;;5.04;68.98;149937.34;10628733;27;20078;-73
2024/03/07 11:11:30;;;;;;;14.02;10.60;;;;;;;5.15;67.84;149963.09;10637280;27;20066;-74
2024/03/07 11:16:34;;;;;;;12.93;11.25;;;;;;;5.05;68.82;149938.69;10658380;27;20065;-73
2024/03/07 11:21:42;;;;;;;11.95;10.75;;;;;;;5.00;66.82;149927.13;10609433;27;20130;-73
2024/03/07 11:26:47;;;;;;;13.10;10.48;;;;;;;4.86;67.03;149891.09;10628477;27;20072;-72
2024/03/07 11:31:53;;;;;;;11.75;10.57;;;;;;;4.74;67.72;149860.28;10628252;27;20043;-72
2024/03/07 11:36:56;;;;;;;9.23;7.70;;;;;;;4.83;66.62;149882.13;10607863;27;20502;-73
2024/03/07 11:41:58;;;;;;;11.23;10.02;;;;;;;4.92;66.43;149906.53;10609136;27;20054;-73
2024/03/07 11:47:09;;;;;;;11.48;10.23;;;;;;;4.84;67.33;149885.97;10608753;27;20039;-73
2024/03/07 11:52:13;;;;;;;9.70;8.70;;;;;;;4.51;67.30;149802.41;10626918;27;20066;-72
2024/03/07 11:57:19;;;;;;;10.88;9.52;;;;;;;4.47;66.69;149793.44;10630848;27;20027;-73
2024/03/07 12:02:23;;;;;;;11.20;9.77;;;;;;;4.47;67.33;149792.13;10645682;27;20125;-73
2024/03/07 12:07:26;;;;;;;11.77;10.18;;;;;;;4.67;66.60;149842.25;10651066;27;20042;-73
2024/03/07 12:12:28;;;;;;;15.65;10.10;;;;;;;4.44;67.62;149784.44;10668814;27;20043;-73
2024/03/07 12:17:31;;;;;;;12.93;10.02;;;;;;;4.34;67.49;149760.03;10635314;27;20038;-73
2024/03/07 12:22:35;;;;;;;15.07;10.63;;;;;;;4.39;66.90;149772.88;10669372;27;20058;-73
2024/03/07 12:27:38;;;;;;;12.50;10.57;;;;;;;4.30;66.79;149749.75;10669341;27;20039;-74
2024/03/07 12:32:47;;;;;;;11.70;10.48;;;;;;;4.49;66.61;149798.56;10647033;27;20046;-74
2024/03/07 12:37:49;;;;;;;11.18;9.95;;;;;;;4.66;65.36;149840.97;10627333;27;20083;-74
2024/03/07 12:42:53;;;;;;;11.95;10.07;;;;;;;4.65;65.59;149838.44;10668930;27;20039;-73
2024/03/07 12:47:54;;;;;;;13.05;9.50;;;;;;;4.55;65.11;149813.97;10646544;27;20047;-74
2024/03/07 12:52:56;;;;;;;8.88;7.97;;;;;;;4.66;61.59;149839.69;10618232;27;20042;-73
2024/03/07 12:57:58;;;;;;;9.73;8.68;;;;;;;4.72;63.12;149856.38;10634662;27;20442;-74
2024/03/07 13:03:00;;;;;;;12.02;9.48;;;;;;;5.02;61.98;149932.25;10634428;27;20043;-73
2024/03/07 13:08:02;;;;;;;12.57;8.60;;;;;;;5.20;61.42;149977.22;10635232;27;20049;-73
2024/03/07 13:13:04;;;;;;;11.35;8.18;;;;;;;5.44;59.81;150037.66;10633829;27;20039;-74
2024/03/07 13:18:07;;;;;;;8.82;7.93;;;;;;;5.26;59.12;149991.38;10632637;27;20061;-73
2024/03/07 13:23:10;;;;;;;8.82;7.93;;;;;;;5.07;59.28;149943.81;10633109;27;20410;-73
2024/03/07 13:28:16;;;;;;;8.45;7.55;;;;;;;4.98;60.81;149921.94;10632196;27;20043;-72
2024/03/07 13:33:18;;;;;;;9.63;8.63;;;;;;;5.19;60.98;149974.66;10632498;27;20107;-73
2024/03/07 13:38:20;;;;;;;10.02;8.07;;;;;;;5.39;59.60;150024.78;10632124;27;20031;-73
2024/03/07 13:43:22;;;;;;;9.65;8.10;;;;;;;5.46;60.16;150042.81;10632046;27;20068;-73
2024/03/07 13:48:24;;;;;;;8.60;7.10;;;;;;;5.34;57.51;150010.66;10662818;27;20121;-72
2024/03/07 13:58:33;;;;;;;10.80;7.97;;;;;;;5.67;56.40;150095.56;10673997;27;20534;-73
2024/03/07 14:04:14;;;;;;;14.25;8.60;;;;;;;5.69;56.19;150099.41;10654449;27;20043;-73
2024/03/07 14:09:49;;;;;;;8.27;6.78;;;;;;;5.62;55.64;150081.38;10657739;27;20118;-72
2024/03/07 14:15:42;;;;;;;8.32;6.47;;;;;;;5.78;55.89;150123.84;10674795;27;20045;-73
2024/03/07 14:21:21;;;;;;;8.98;8.07;;;;;;;5.73;55.99;150110.97;10673712;27;20043;-73
2024/03/07 14:26:41;;;;;;;8.63;7.43;;;;;;;5.71;55.67;150105.84;10656089;27;20049;-73
2024/03/07 14:31:49;;;;;;;9.10;8.15;;;;;;;5.61;56.11;150078.81;10673801;27;20042;-73
2024/03/07 14:36:59;;;;;;;8.40;7.53;;;;;;;5.49;58.07;150049.22;10673620;27;20062;-73
2024/03/07 14:42:11;;;;;;;10.25;7.68;;;;;;;5.63;56.71;150085.28;10674071;27;20037;-72
2024/03/07 14:47:14;;;;;;;10.48;7.82;;;;;;;5.47;57.08;150045.38;10673126;27;20533;-73
2024/03/07 14:52:16;;;;;;;8.30;7.35;;;;;;;5.47;56.66;150045.38;10672044;27;20415;-73
2024/03/07 14:57:18;;;;;;;8.65;7.80;;;;;;;5.34;57.04;150010.66;10672221;27;20462;-73
2024/03/07 15:02:23;;;;;;;10.90;8.27;;;;;;;5.48;58.63;150047.94;10671941;27;20095;-73
2024/03/07 15:07:25;;;;;;;8.93;8.02;;;;;;;5.43;56.80;150035.09;10671603;27;20042;-73
2024/03/07 15:12:27;;;;;;;10.77;7.45;;;;;;;5.65;57.81;150089.13;10672611;27;20050;-73
2024/03/07 15:17:29;;;;;;;9.98;8.63;;;;;;;5.54;57.41;150062.13;10672044;27;20074;-73
2024/03/07 15:22:32;;;;;;;10.27;8.13;;;;;;;5.33;57.44;150009.38;10672785;27;20038;-74
2024/03/07 15:27:39;;;;;;;10.07;9.18;;;;;;;5.44;58.67;150036.38;10652331;27;20035;-72
2024/03/07 15:32:42;;;;;;;11.23;8.10;;;;;;;5.26;57.99;149992.63;10671114;27;20080;-73
2024/03/07 15:37:48;;;;;;;10.25;9.10;;;;;;;5.27;58.12;149993.97;10670087;27;20045;-73
2024/03/07 15:42:51;;;;;;;11.00;9.18;;;;;;;5.21;57.72;149978.50;10669742;27;20065;-73
2024/03/07 15:47:59;;;;;;;10.55;7.60;;;;;;;5.22;57.54;149981.06;10644487;27;20100;-73
2024/03/07 15:53:01;;;;;;;10.75;9.35;;;;;;;5.18;57.98;149970.78;10627659;27;20452;-72
2024/03/07 15:58:06;;;;;;;10.07;9.07;;;;;;;5.03;58.80;149933.53;10627013;27;20039;-73
2024/03/07 16:03:10;;;;;;;9.00;8.10;;;;;;;5.08;59.63;149946.38;10608053;27;20489;-73
2024/03/07 16:08:16;;;;;;;10.68;9.57;;;;;;;5.07;59.13;149945.09;10626191;27;20043;-73
2024/03/07 16:13:18;;;;;;;9.75;8.32;;;;;;;4.95;58.80;149912.94;10626705;27;20095;-73
2024/03/07 16:18:23;;;;;;;10.00;9.00;;;;;;;4.92;59.68;149906.53;10626566;27;20035;-73
2024/03/07 16:23:27;;;;;;;10.80;7.13;;;;;;;4.90;59.75;149901.38;10626324;27;20039;-73
2024/03/07 16:28:29;;;;;;;10.52;9.52;;;;;;;4.92;59.80;149906.53;10627915;27;20045;-73
2024/03/07 16:33:31;;;;;;;11.18;9.73;;;;;;;4.76;61.08;149866.66;10607203;27;20120;-72
2024/03/07 16:38:34;;;;;;;13.15;9.82;;;;;;;4.78;59.94;149870.50;10625737;27;20047;-72
2024/03/07 16:43:37;;;;;;;11.50;10.30;;;;;;;4.77;59.93;149867.94;10625862;28;20072;-72
2024/03/07 16:48:39;;;;;;;14.25;12.18;;;;;;;4.84;59.71;149885.97;10657666;27;20506;-73
2024/03/07 16:53:41;;;;;;;16.50;11.20;;;;;;;4.64;60.38;149834.53;10667563;27;20046;-73
2024/03/07 16:58:44;;;;;;;11.57;10.23;;;;;;;4.59;60.96;149822.97;10667896;27;20049;-72
2024/03/07 17:03:45;;;;;;;12.95;10.20;;;;;;;4.65;60.11;149837.09;10650310;27;20469;-73
2024/03/07 17:08:48;;;;;;;11.07;9.90;;;;;;;4.39;60.33;149772.88;10667438;27;20041;-72
2024/03/07 17:13:50;;;;;;;12.07;10.98;;;;;;;4.45;59.59;149788.28;10668706;27;20043;-72
2024/03/07 17:18:52;;;;;;;13.52;10.80;;;;;;;4.26;59.85;149740.75;10650044;27;20047;-72
2024/03/07 17:23:53;;;;;;;11.98;10.43;;;;;;;4.33;61.09;149757.44;10667619;27;20099;-72
2024/03/07 17:28:56;;;;;;;10.77;9.73;;;;;;;4.28;61.50;149745.88;10668436;27;20039;-72
2024/03/07 17:33:57;;;;;;;13.98;11.30;;;;;;;4.32;59.78;149754.88;10651195;27;20050;-72
2024/03/07 17:39:01;;;;;;;12.80;11.40;;;;;;;4.12;59.00;149704.78;10677264;27;20039;-73
2024/03/07 17:44:07;;;;;;;12.05;10.18;;;;;;;4.12;59.47;149704.78;10658035;27;20514;-73
2024/03/07 17:49:10;;;;;;;12.98;11.68;;;;;;;4.11;60.00;149702.19;10638518;27;20444;-70
2024/03/07 17:54:12;;;;;;;13.57;12.20;;;;;;;4.01;59.84;149676.50;10634207;27;20043;-71
2024/03/07 17:59:19;;;;;;;12.48;11.20;;;;;;;3.95;60.19;149661.13;10636349;27;20050;-71
2024/03/07 18:04:24;;;;;;;14.77;12.93;;;;;;;3.92;60.79;149654.69;10633461;27;20047;-70
2024/03/07 18:09:28;;;;;;;21.23;12.05;;;;;;;3.83;61.00;149630.28;10635301;27;20031;-70
2024/03/07 18:14:33;;;;;;;13.63;12.13;;;;;;;3.97;61.67;149667.50;10635239;27;20059;-71
2024/03/07 18:19:35;;;;;;;15.10;11.85;;;;;;;3.79;61.91;149621.28;10615696;27;20047;-70
2024/03/07 18:24:37;;;;;;;14.20;12.50;;;;;;;4.08;60.24;149694.50;10631917;27;20039;-69
2024/03/07 18:29:39;;;;;;;13.10;11.80;;;;;;;3.91;60.88;149650.84;10614873;27;20114;-70
2024/03/07 18:34:41;;;;;;;13.93;12.38;;;;;;;3.84;61.12;149632.84;10634165;27;20051;-70
2024/03/07 18:39:44;;;;;;;14.85;12.70;;;;;;;3.83;61.42;149630.28;10632022;27;20042;-70
2024/03/07 18:44:49;;;;;;;13.00;11.68;;;;;;;3.87;61.00;149640.56;10597103;27;20635;-70
2024/03/07 18:49:51;;;;;;;14.70;12.13;;;;;;;3.79;61.63;149621.28;10613965;27;20465;-70
2024/03/07 18:54:55;;;;;;;13.82;11.75;;;;;;;3.74;60.47;149608.44;10631672;27;20404;-69
2024/03/07 18:59:58;;;;;;;13.05;11.73;;;;;;;3.66;60.97;149589.19;10632199;27;20036;-70
2024/03/07 19:05:07;;;;;;;14.52;12.27;;;;;;;3.53;61.32;149555.78;10633813;27;20045;-70
2024/03/07 19:10:16;;;;;;;15.05;12.68;;;;;;;3.54;61.56;149559.66;10631096;27;20039;-70
2024/03/07 19:15:20;;;;;;;18.63;13.57;;;;;;;3.51;62.09;149550.69;10630808;27;20066;-69
2024/03/07 19:20:22;;;;;;;15.52;12.82;;;;;;;3.49;62.36;149545.50;10631361;27;20046;-70
2024/03/07 19:25:24;;;;;;;14.43;12.77;;;;;;;3.68;62.07;149593.06;10630031;27;20481;-71
2024/03/07 19:30:29;;;;;;;15.02;12.07;;;;;;;3.62;62.61;149577.63;10630341;27;20070;-70
2024/03/07 19:35:33;;;;;;;14.15;12.05;;;;;;;3.59;62.59;149569.94;10611159;27;20051;-71
2024/03/07 19:40:35;;;;;;;18.52;12.43;;;;;;;3.33;63.88;149504.47;10630537;27;20039;-71
2024/03/07 19:45:40;;;;;;;13.32;11.98;;;;;;;3.46;64.34;149539.13;10629632;27;20139;-70
2024/03/07 19:50:43;;;;;;;18.13;13.93;;;;;;;3.41;65.08;149526.28;10629485;27;20047;-71
2024/03/07 19:55:46;;;;;;;13.73;12.30;;;;;;;3.33;64.97;149504.47;10629603;27;20537;-70
2024/03/07 20:00:48;;;;;;;15.23;13.65;;;;;;;3.41;65.74;149526.28;10628131;27;20035;-70
2024/03/07 20:05:54;;;;;;;16.38;13.82;;;;;;;3.33;65.16;149504.47;10628187;27;20049;-70
2024/03/07 20:10:57;;;;;;;17.52;13.65;;;;;;;3.44;65.31;149533.97;10628860;27;20532;-71
2024/03/07 20:16:00;;;;;;;14.65;12.68;;;;;;;3.53;64.38;149557.06;10627876;27;20058;-71
2024/03/07 20:21:03;;;;;;;15.85;12.82;;;;;;;3.19;66.14;149469.81;10610172;27;20047;-71
2024/03/07 20:26:05;;;;;;;15.98;13.38;;;;;;;3.02;67.35;149428.72;10627208;27;20077;-70
2024/03/07 20:31:07;;;;;;;15.80;14.10;;;;;;;3.07;67.00;149439.00;10628576;27;20027;-70
2024/03/07 20:36:10;;;;;;;16.67;14.27;;;;;;;2.94;67.47;149406.91;10607922;27;20054;-70
2024/03/07 20:41:13;;;;;;;16.08;13.75;;;;;;;2.74;68.48;149358.09;10628195;27;20031;-71
2024/03/07 20:46:14;;;;;;;15.18;13.05;;;;;;;2.80;68.50;149372.25;10626314;28;20047;-70
2024/03/07 20:51:18;;;;;;;15.25;13.13;;;;;;;3.07;68.35;149440.28;10606972;28;20043;-71
2024/03/07 20:56:20;;;;;;;16.80;12.93;;;;;;;3.23;66.46;149480.03;10626324;28;20039;-70
2024/03/07 21:01:24;;;;;;;19.52;14.68;;;;;;;3.24;66.25;149482.63;10625281;28;20130;-70
2024/03/07 21:06:27;;;;;;;16.40;13.45;;;;;;;3.31;65.72;149500.56;10625067;28;20096;-69
2024/03/07 21:11:29;;;;;;;19.33;13.13;;;;;;;3.24;66.42;149483.91;10632647;27;20104;-71
2024/03/07 21:16:32;;;;;;;15.73;13.77;;;;;;;3.00;67.15;149423.56;10615633;27;20100;-70
2024/03/07 21:21:35;;;;;;;15.05;13.45;;;;;;;3.24;66.44;149483.91;10633834;27;20039;-71
2024/03/07 21:26:38;;;;;;;18.25;13.90;;;;;;;3.16;66.71;149462.09;10615842;27;20065;-71
2024/03/07 21:31:40;;;;;;;14.45;12.73;;;;;;;3.23;66.17;149480.03;10633896;27;20039;-70
2024/03/07 21:36:44;;;;;;;16.52;13.50;;;;;;;3.06;67.16;149437.72;10633364;27;20039;-69
2024/03/07 21:41:46;;;;;;;26.17;14.25;;;;;;;3.23;66.60;149481.34;10615679;27;20061;-73
2024/03/07 21:46:48;;;;;;;16.15;12.18;;;;;;;3.18;66.94;149467.19;10618194;27;20043;-72
2024/03/07 21:51:50;;;;;;;20.48;14.65;;;;;;;3.17;67.79;149465.94;10635264;27;20110;-71
2024/03/07 21:56:52;;;;;;;19.35;13.07;;;;;;;3.14;66.97;149456.94;10634707;27;20123;-71
2024/03/07 22:01:55;;;;;;;14.75;12.40;;;;;;;3.06;68.51;149436.44;10634459;27;20047;-70
2024/03/07 22:06:57;;;;;;;14.75;13.10;;;;;;;3.06;68.76;149437.72;10634919;27;20042;-70
2024/03/07 22:11:59;;;;;;;15.38;13.73;;;;;;;2.99;69.55;149419.72;10634168;27;20043;-71
2024/03/07 22:17:04;;;;;;;17.38;13.70;;;;;;;2.76;69.47;149362.00;10614977;27;20122;-71
2024/03/07 22:22:07;;;;;;;15.63;14.00;;;;;;;2.86;69.81;149386.38;10615125;27;20062;-71
2024/03/07 22:27:10;;;;;;;18.98;13.88;;;;;;;3.09;68.64;149445.38;10599087;27;20111;-71
2024/03/07 22:32:12;;;;;;;16.15;13.68;;;;;;;2.90;68.97;149397.91;10614983;27;20049;-70
2024/03/07 22:37:15;;;;;;;15.23;12.93;;;;;;;2.78;70.36;149367.09;10631827;27;20088;-70
2024/03/07 22:42:17;;;;;;;16.83;13.50;;;;;;;2.73;70.16;149355.56;10633180;27;20414;-70
2024/03/07 22:47:21;;;;;;;20.55;14.82;;;;;;;2.63;71.14;149328.63;10632187;27;20487;-71
2024/03/07 22:52:23;;;;;;;14.90;13.30;;;;;;;3.02;69.70;149428.72;10613619;27;20085;-70
2024/03/07 22:57:25;;;;;;;14.95;13.40;;;;;;;3.28;68.43;149492.91;10631591;27;20122;-71
2024/03/07 23:02:27;;;;;;;21.48;15.07;;;;;;;3.07;70.08;149440.28;10630734;27;20057;-71
2024/03/07 23:07:29;;;;;;;15.98;13.63;;;;;;;2.87;70.63;149390.19;10611739;27;20047;-69